Terminal Aerodrome Forecast
Issued by NWS

Home | Current Version | Previous Version | Text Only | Print | Product List | Glossary Off
Versions: 1 2 3 4 5 6 7 8 9 10 11 12 13 14 15 16 17 18 19 20 21

000
FTUS43 KMPX 291100
TAFRNH
TAF
KRNH 291138Z 2912/3012 01008KT P6SM -RA BKN009 OVC014
      TEMPO 2912/2915 4SM -RA BR SCT009 OVC018
     FM291500 02009KT P6SM VCSH SCT009 OVC014
     FM291800 03010KT P6SM BKN016 OVC030
     FM292200 04009KT P6SM SCT020 BKN035
     FM300700 08007KT 5SM BR SCT008=

USA.gov is the U.S. government's official web portal to all federal, state and local government web resources and services.